createdAt,value
2022-12-15T00:02:35.486Z,82.89
2022-12-15T00:05:22.023Z,82.90
2022-12-15T00:08:07.824Z,81.86
2022-12-15T00:10:53.385Z,81.31
2022-12-15T00:13:38.845Z,81.86
2022-12-15T00:16:25.966Z,81.22
2022-12-15T00:19:11.654Z,81.65
2022-12-15T00:21:57.377Z,81.30
2022-12-15T00:24:43.350Z,80.73
2022-12-15T00:27:28.858Z,80.87
2022-12-15T00:30:14.467Z,81.70
2022-12-15T00:33:00.166Z,80.84
2022-12-15T00:35:45.776Z,80.71
2022-12-15T00:38:33.489Z,80.73
2022-12-15T00:41:02.095Z,81.25
2022-12-15T00:43:35.063Z,81.27
2022-12-15T00:46:21.891Z,81.35
2022-12-15T00:48:48.972Z,81.66
2022-12-15T00:51:17.609Z,81.54
2022-12-15T00:54:04.918Z,81.52
2022-12-15T00:56:50.701Z,82.68
2022-12-15T00:59:36.557Z,82.36
2022-12-15T01:02:22.771Z,82.67
2022-12-15T01:05:08.563Z,82.47
2022-12-15T01:07:54.396Z,82.00
2022-12-15T01:10:39.967Z,81.86
2022-12-15T01:13:25.803Z,81.45
2022-12-15T01:16:11.369Z,80.57
2022-12-15T01:18:57.310Z,80.76
2022-12-15T01:21:25.492Z,80.62
2022-12-15T01:23:53.430Z,81.05
2022-12-15T01:26:20.727Z,80.89
2022-12-15T01:28:47.853Z,80.40
2022-12-15T01:31:15.322Z,81.18
2022-12-15T01:33:43.749Z,80.55
2022-12-15T01:36:11.667Z,80.88
2022-12-15T01:38:38.701Z,80.56
2022-12-15T01:41:09.955Z,80.88
2022-12-15T01:43:39.683Z,80.99
2022-12-15T01:46:12.654Z,81.24
2022-12-15T01:49:02.558Z,80.82
2022-12-15T01:51:39.546Z,81.13
2022-12-15T01:54:15.065Z,80.18
2022-12-15T01:56:47.775Z,80.97
2022-12-15T01:59:20.919Z,81.35
2022-12-15T02:01:49.869Z,80.70
2022-12-15T02:04:21.412Z,80.49
2022-12-15T02:06:48.567Z,80.58
2022-12-15T02:09:17.134Z,80.73
2022-12-15T02:12:13.337Z,80.81
2022-12-15T02:15:23.570Z,80.83
2022-12-15T02:18:02.704Z,80.82
2022-12-15T02:20:53.322Z,80.88
2022-12-15T02:23:50.491Z,80.84
2022-12-15T02:26:41.330Z,80.95
2022-12-15T02:29:29.162Z,81.38
2022-12-15T02:32:13.595Z,81.32
2022-12-15T02:34:48.360Z,80.96
2022-12-15T02:37:32.066Z,80.70
2022-12-15T02:39:59.356Z,80.59
2022-12-15T02:42:29.067Z,79.77
2022-12-15T02:45:09.316Z,79.20
2022-12-15T02:47:48.635Z,79.02
2022-12-15T02:50:29.771Z,79.00
2022-12-15T02:53:34.897Z,78.25
2022-12-15T02:56:31.695Z,79.27
2022-12-15T02:59:34.039Z,79.41
2022-12-15T03:02:06.939Z,79.05
2022-12-15T03:04:34.181Z,78.27
2022-12-15T03:07:09.511Z,78.38
2022-12-15T03:09:36.462Z,78.51
2022-12-15T03:12:03.739Z,78.57
2022-12-15T03:14:30.695Z,78.74
2022-12-15T03:16:57.731Z,78.45
2022-12-15T03:19:25.905Z,79.01
2022-12-15T03:21:53.149Z,78.82
2022-12-15T03:24:20.199Z,78.24
2022-12-15T03:26:50.107Z,78.95
2022-12-15T03:29:18.102Z,78.76
2022-12-15T03:31:45.574Z,79.02
2022-12-15T03:34:13.661Z,78.95
2022-12-15T03:36:40.983Z,78.98
2022-12-15T03:39:08.020Z,79.10
2022-12-15T03:41:35.159Z,78.54
2022-12-15T03:44:02.172Z,78.56
2022-12-15T03:46:29.205Z,78.88
2022-12-15T03:48:56.326Z,78.56
2022-12-15T03:51:23.371Z,79.07
2022-12-15T03:53:50.727Z,78.50
2022-12-15T03:56:18.427Z,78.48
2022-12-15T03:58:45.414Z,78.54
2022-12-15T04:01:23.134Z,78.24
2022-12-15T04:03:50.404Z,78.98
2022-12-15T04:06:18.685Z,78.83
2022-12-15T04:08:45.692Z,79.09
2022-12-15T04:11:17.832Z,78.27
2022-12-15T04:13:45.224Z,79.07
2022-12-15T04:16:17.829Z,78.76
2022-12-15T04:18:46.668Z,77.43
2022-12-15T04:21:13.613Z,77.50
2022-12-15T04:23:59.153Z,78.27
2022-12-15T04:26:44.670Z,78.19
2022-12-15T04:29:30.587Z,78.23
2022-12-15T04:32:15.946Z,78.25
2022-12-15T04:35:01.950Z,78.67
2022-12-15T04:37:47.734Z,78.49
2022-12-15T04:40:33.338Z,78.46
2022-12-15T04:43:18.933Z,78.78
2022-12-15T04:46:04.767Z,78.69
2022-12-15T04:48:50.314Z,77.96
2022-12-15T04:51:35.972Z,78.58
2022-12-15T04:54:21.497Z,78.69
2022-12-15T04:57:07.405Z,78.99
2022-12-15T04:59:53.221Z,78.89
2022-12-15T05:02:38.800Z,78.78
2022-12-15T05:05:24.918Z,78.52
2022-12-15T05:08:10.675Z,79.17
2022-12-15T05:10:56.482Z,79.26
2022-12-15T05:13:42.255Z,79.01
2022-12-15T05:16:27.831Z,78.87
2022-12-15T05:19:13.721Z,78.01
2022-12-15T05:21:59.073Z,78.18
2022-12-15T05:24:44.862Z,78.00
2022-12-15T05:27:30.729Z,78.00
2022-12-15T05:30:16.511Z,77.57
2022-12-15T05:32:43.493Z,77.59
2022-12-15T05:35:10.659Z,78.20
2022-12-15T05:37:37.701Z,78.12
2022-12-15T05:40:05.265Z,78.65
2022-12-15T05:42:32.194Z,78.89
2022-12-15T05:44:59.166Z,78.44
2022-12-15T05:47:26.422Z,78.71
2022-12-15T05:49:53.482Z,78.90
2022-12-15T05:52:20.452Z,79.45
2022-12-15T05:54:47.392Z,79.26
2022-12-15T05:57:14.455Z,79.73
2022-12-15T05:59:41.381Z,79.72
2022-12-15T06:02:08.372Z,79.70
2022-12-15T06:04:35.391Z,78.95
2022-12-15T06:07:02.387Z,78.95
2022-12-15T06:09:29.406Z,78.76
2022-12-15T06:11:56.343Z,77.98
2022-12-15T06:14:23.496Z,77.79
2022-12-15T06:16:51.699Z,77.80
2022-12-15T06:19:20.321Z,77.78
2022-12-15T06:21:47.531Z,77.93
2022-12-15T06:24:14.561Z,78.03
2022-12-15T06:26:41.584Z,77.62
2022-12-15T06:29:12.019Z,77.52
2022-12-15T06:31:41.098Z,78.17
2022-12-15T06:34:12.386Z,78.11
2022-12-15T06:36:40.200Z,78.37
2022-12-15T06:39:10.903Z,78.92
2022-12-15T06:41:38.747Z,78.83
2022-12-15T06:44:05.903Z,78.53
2022-12-15T06:46:35.068Z,77.86
2022-12-15T06:49:02.566Z,77.86
2022-12-15T06:51:30.305Z,77.90
2022-12-15T06:53:57.286Z,78.11
2022-12-15T06:56:33.013Z,78.12
2022-12-15T06:59:02.020Z,77.51
2022-12-15T07:01:29.818Z,77.17
2022-12-15T07:04:00.149Z,76.96
2022-12-15T07:06:28.305Z,77.72
2022-12-15T07:08:56.829Z,77.41
2022-12-15T07:11:24.106Z,77.43
2022-12-15T07:13:54.634Z,77.07
2022-12-15T07:16:23.197Z,76.71
2022-12-15T07:18:50.544Z,76.92
2022-12-15T07:21:18.182Z,77.04
2022-12-15T07:23:54.657Z,77.31
2022-12-15T07:26:23.679Z,77.03
2022-12-15T07:28:50.718Z,77.50
2022-12-15T07:31:17.964Z,77.10
2022-12-15T07:33:45.518Z,76.90
2022-12-15T07:36:13.225Z,77.37
2022-12-15T07:38:40.268Z,77.03
2022-12-15T07:41:09.864Z,76.53
2022-12-15T07:43:38.121Z,76.47
2022-12-15T07:46:06.369Z,76.66
2022-12-15T07:48:33.810Z,76.80
2022-12-15T07:51:12.431Z,76.76
2022-12-15T07:53:44.555Z,75.55
2022-12-15T07:56:11.575Z,75.91
2022-12-15T07:58:39.015Z,75.82
2022-12-15T08:01:10.592Z,76.40
2022-12-15T08:03:39.162Z,75.92
2022-12-15T08:06:12.145Z,74.89
2022-12-15T08:08:40.499Z,74.13
2022-12-15T08:11:10.868Z,74.38
2022-12-15T08:16:27.520Z,74.04
2022-12-15T08:18:57.114Z,74.38
2022-12-15T08:21:24.141Z,73.90
2022-12-15T08:23:51.166Z,73.91
2022-12-15T08:26:18.994Z,73.63
2022-12-15T08:28:46.274Z,73.46
2022-12-15T08:31:22.825Z,73.69
2022-12-15T08:33:50.631Z,73.50
2022-12-15T08:36:19.445Z,73.35
2022-12-15T08:38:47.669Z,73.07
2022-12-15T08:41:20.982Z,72.68
2022-12-15T08:43:49.762Z,72.32
2022-12-15T08:46:19.217Z,72.51
2022-12-15T08:48:47.004Z,71.90
2022-12-15T08:51:14.397Z,72.33
2022-12-15T08:53:41.653Z,72.42
2022-12-15T08:56:13.103Z,72.82
2022-12-15T08:58:40.683Z,72.63
2022-12-15T09:01:16.075Z,73.21
2022-12-15T09:03:46.450Z,72.89
2022-12-15T09:06:27.754Z,73.33
2022-12-15T09:08:57.706Z,72.47
2022-12-15T09:11:26.125Z,72.41
2022-12-15T09:13:53.209Z,72.48
2022-12-15T09:16:21.582Z,72.62
2022-12-15T09:18:55.496Z,72.30
2022-12-15T09:21:26.307Z,72.44
2022-12-15T09:23:57.776Z,72.58
2022-12-15T09:26:24.976Z,72.06
2022-12-15T09:28:54.940Z,72.10
2022-12-15T09:31:32.766Z,72.12
2022-12-15T09:34:00.901Z,72.01
2022-12-15T09:36:30.038Z,72.34
2022-12-15T09:38:56.985Z,71.65
2022-12-15T09:41:33.155Z,71.28
2022-12-15T09:44:28.998Z,71.37
2022-12-15T09:47:01.285Z,70.72
2022-12-15T09:50:01.596Z,71.25
2022-12-15T09:52:35.846Z,71.14
2022-12-15T09:55:16.762Z,70.10
2022-12-15T09:57:52.999Z,69.88
2022-12-15T10:00:36.544Z,70.87
2022-12-15T10:03:32.071Z,70.77
2022-12-15T10:06:20.067Z,70.84
2022-12-15T10:08:57.464Z,70.09
2022-12-15T10:11:40.930Z,69.18
2022-12-15T10:14:23.136Z,68.88
2022-12-15T10:17:17.169Z,68.71
2022-12-15T10:20:07.261Z,68.27
2022-12-15T10:22:38.269Z,68.69
2022-12-15T10:25:14.123Z,68.24
2022-12-15T10:27:56.085Z,69.65
2022-12-15T10:30:23.389Z,69.36
2022-12-15T10:33:11.472Z,70.28
2022-12-15T10:35:40.441Z,70.43
2022-12-15T10:38:24.636Z,70.14
2022-12-15T10:40:56.601Z,70.08
2022-12-15T10:43:25.389Z,70.06
2022-12-15T10:46:24.622Z,69.39
2022-12-15T10:48:57.133Z,69.45
2022-12-15T10:51:42.812Z,68.96
2022-12-15T10:54:09.944Z,69.04
2022-12-15T10:56:57.337Z,69.04
2022-12-15T10:59:34.215Z,68.42
2022-12-15T11:02:36.926Z,68.46
2022-12-15T11:05:22.857Z,68.03
2022-12-15T11:08:17.168Z,68.05
2022-12-15T11:11:18.374Z,68.37
2022-12-15T11:14:11.339Z,67.32
2022-12-15T11:16:54.170Z,67.53
2022-12-15T11:19:40.669Z,67.30
2022-12-15T11:22:18.694Z,67.27
2022-12-15T11:24:53.362Z,66.59
2022-12-15T11:27:36.006Z,66.87
2022-12-15T11:30:20.139Z,66.56
2022-12-15T11:32:58.094Z,66.91
2022-12-15T11:35:53.295Z,67.56
2022-12-15T11:38:56.791Z,69.06
2022-12-15T11:41:53.491Z,68.86
2022-12-15T11:44:51.970Z,67.88
2022-12-15T11:47:47.485Z,68.33
2022-12-15T11:50:41.334Z,68.21
2022-12-15T11:53:27.486Z,67.99
2022-12-15T11:56:24.435Z,68.13
2022-12-15T11:59:27.495Z,67.61
2022-12-15T12:02:27.363Z,66.87
2022-12-15T12:05:34.171Z,67.23
2022-12-15T12:08:19.029Z,67.60
2022-12-15T12:11:07.381Z,67.70
2022-12-15T12:13:58.578Z,68.24
2022-12-15T12:16:40.241Z,68.10
2022-12-15T12:19:18.136Z,68.59
2022-12-15T12:21:51.537Z,68.45
2022-12-15T12:24:33.114Z,68.57
2022-12-15T12:27:41.688Z,68.25
2022-12-15T12:30:20.087Z,68.13
2022-12-15T12:33:03.226Z,67.59
2022-12-15T12:35:42.557Z,67.76
2022-12-15T12:38:13.138Z,67.80
2022-12-15T12:41:20.563Z,67.58
2022-12-15T12:44:00.857Z,67.86
2022-12-15T12:46:37.393Z,68.18
2022-12-15T12:49:26.791Z,68.00
2022-12-15T12:51:58.822Z,68.66
2022-12-15T12:54:37.515Z,69.24
2022-12-15T12:57:13.429Z,69.13
2022-12-15T13:00:02.773Z,69.85
2022-12-15T13:02:35.298Z,69.77
2022-12-15T13:05:30.899Z,69.92
2022-12-15T13:08:07.003Z,69.87
2022-12-15T13:10:37.498Z,69.92
2022-12-15T13:13:42.114Z,69.38
2022-12-15T13:16:24.285Z,68.84
2022-12-15T13:19:02.152Z,69.61
2022-12-15T13:21:44.506Z,70.01
2022-12-15T13:24:29.975Z,69.77
2022-12-15T13:27:08.749Z,69.20
2022-12-15T13:30:14.181Z,70.59
2022-12-15T13:32:46.048Z,70.52
2022-12-15T13:35:14.454Z,69.55
2022-12-15T13:38:03.863Z,69.98
2022-12-15T13:40:36.907Z,70.21
2022-12-15T13:43:06.620Z,70.52
2022-12-15T13:45:35.889Z,71.34
2022-12-15T13:48:22.646Z,71.56
2022-12-15T13:51:18.486Z,71.08
2022-12-15T13:53:53.627Z,71.80
2022-12-15T13:56:45.313Z,71.17
2022-12-15T13:59:40.174Z,70.75
2022-12-15T14:02:28.007Z,70.06
2022-12-15T14:05:15.105Z,70.43
2022-12-15T14:07:54.996Z,70.33
2022-12-15T14:10:42.412Z,69.85
2022-12-15T14:13:29.751Z,69.68
2022-12-15T14:16:00.428Z,70.15
2022-12-15T14:18:33.421Z,70.51
2022-12-15T14:21:05.141Z,69.98
2022-12-15T14:24:11.465Z,70.08
2022-12-15T14:26:32.880Z,69.57
2022-12-15T14:29:06.183Z,69.42
2022-12-15T14:31:33.798Z,70.28
2022-12-15T14:34:12.070Z,69.93
2022-12-15T14:36:42.099Z,70.52
2022-12-15T14:39:30.719Z,70.28
2022-12-15T14:41:59.098Z,70.41
2022-12-15T14:44:48.117Z,70.63
2022-12-15T14:47:31.924Z,70.50
2022-12-15T14:50:02.228Z,69.99
2022-12-15T14:52:38.911Z,70.79
2022-12-15T14:55:36.952Z,71.17
2022-12-15T14:58:35.884Z,71.07
2022-12-15T15:01:06.961Z,70.63
2022-12-15T15:03:40.798Z,70.92
2022-12-15T15:06:18.833Z,70.78
2022-12-15T15:08:52.734Z,71.58
2022-12-15T15:11:36.244Z,70.51
2022-12-15T15:14:17.039Z,70.40
2022-12-15T15:16:44.516Z,71.52
2022-12-15T15:19:21.558Z,72.38
2022-12-15T15:21:48.912Z,72.25
2022-12-15T15:24:15.864Z,73.01
2022-12-15T15:26:45.973Z,73.27
2022-12-15T15:29:41.531Z,73.26
2022-12-15T15:32:19.230Z,73.54
2022-12-15T15:34:47.335Z,73.22
2022-12-15T15:37:32.571Z,73.15
2022-12-15T15:39:59.511Z,73.08
2022-12-15T15:42:32.459Z,73.17
2022-12-15T15:44:59.797Z,73.15
2022-12-15T15:47:27.134Z,72.78
2022-12-15T15:49:58.308Z,72.94
2022-12-15T15:52:25.813Z,73.12
2022-12-15T15:54:53.749Z,73.08
2022-12-15T15:57:20.694Z,73.43
2022-12-15T15:59:47.887Z,73.38
2022-12-15T16:02:15.610Z,73.78
2022-12-15T16:04:44.314Z,72.53
2022-12-15T16:07:25.522Z,72.88
2022-12-15T16:09:53.897Z,73.92
2022-12-15T16:12:40.430Z,74.61
2022-12-15T16:15:16.867Z,74.14
2022-12-15T16:17:44.165Z,74.86
2022-12-15T16:20:17.117Z,75.01
2022-12-15T16:22:48.869Z,75.07
2022-12-15T16:25:48.473Z,75.15
2022-12-15T16:28:25.105Z,75.24
2022-12-15T16:30:52.876Z,75.37
2022-12-15T16:33:20.470Z,75.82
2022-12-15T16:35:49.606Z,75.94
2022-12-15T16:38:26.861Z,75.96
2022-12-15T16:40:55.493Z,75.85
2022-12-15T16:43:27.901Z,76.17
2022-12-15T16:45:57.284Z,76.11
2022-12-15T16:48:24.448Z,76.15
2022-12-15T16:50:58.317Z,76.06
2022-12-15T16:53:33.311Z,75.90
2022-12-15T16:56:04.024Z,76.37
2022-12-15T16:58:32.358Z,75.96
2022-12-15T17:00:59.714Z,76.16
2022-12-15T17:03:27.202Z,76.02
2022-12-15T17:06:01.605Z,76.25
2022-12-15T17:08:42.316Z,75.90
2022-12-15T17:11:27.417Z,76.32
2022-12-15T17:13:57.450Z,75.58
2022-12-15T17:16:26.359Z,75.66
2022-12-15T17:18:53.554Z,76.10
2022-12-15T17:21:28.102Z,76.39
2022-12-15T17:24:00.775Z,76.42
2022-12-15T17:26:32.218Z,76.09
2022-12-15T17:29:13.464Z,76.23
2022-12-15T17:31:40.426Z,76.13
2022-12-15T17:34:27.934Z,75.70
2022-12-15T17:36:59.449Z,75.98
2022-12-15T17:39:27.349Z,75.74
2022-12-15T17:42:02.949Z,75.94
2022-12-15T17:44:37.765Z,76.36
2022-12-15T17:47:08.240Z,75.82
2022-12-15T17:49:38.639Z,76.22
2022-12-15T17:52:21.214Z,75.44
2022-12-15T17:54:48.309Z,75.40
2022-12-15T17:57:15.280Z,75.22
2022-12-15T17:59:42.350Z,74.46
2022-12-15T18:02:18.286Z,73.84
2022-12-15T18:04:45.404Z,73.50
2022-12-15T18:07:20.301Z,74.15
2022-12-15T18:09:47.953Z,73.71
2022-12-15T18:12:22.575Z,73.54
2022-12-15T18:14:50.234Z,73.47
2022-12-15T18:17:17.270Z,73.52
2022-12-15T18:19:45.010Z,73.20
2022-12-15T18:22:22.593Z,73.38
2022-12-15T18:24:53.082Z,74.12
2022-12-15T18:27:26.359Z,73.73
2022-12-15T18:29:54.038Z,73.26
2022-12-15T18:32:25.971Z,74.20
2022-12-15T18:34:53.974Z,74.66
2022-12-15T18:37:24.695Z,75.60
2022-12-15T18:39:52.078Z,75.58
2022-12-15T18:42:21.374Z,75.42
2022-12-15T18:44:51.807Z,75.52
2022-12-15T18:47:22.366Z,75.57
2022-12-15T18:49:49.658Z,75.36
2022-12-15T18:52:20.591Z,74.91
2022-12-15T18:54:49.647Z,74.40
2022-12-15T18:57:27.658Z,74.76
2022-12-15T19:00:10.036Z,75.00
2022-12-15T19:02:37.134Z,74.54
2022-12-15T19:05:04.618Z,73.46
2022-12-15T19:07:32.605Z,73.78
2022-12-15T19:10:01.048Z,73.48
2022-12-15T19:12:28.055Z,73.54
2022-12-15T19:14:55.200Z,73.56
2022-12-15T19:17:43.000Z,73.45
2022-12-15T19:20:39.139Z,72.83
2022-12-15T19:23:07.808Z,72.44
2022-12-15T19:25:35.573Z,72.65
2022-12-15T19:28:02.600Z,72.89
2022-12-15T19:30:37.024Z,72.48
2022-12-15T19:33:10.354Z,73.15
2022-12-15T19:35:40.256Z,72.91
2022-12-15T19:38:08.291Z,72.68
2022-12-15T19:40:37.602Z,72.68
2022-12-15T19:43:05.456Z,72.15
2022-12-15T19:45:33.766Z,71.65
2022-12-15T19:48:00.883Z,71.04
2022-12-15T19:50:36.668Z,72.08
2022-12-15T19:53:24.199Z,72.25
2022-12-15T19:55:54.405Z,72.45
2022-12-15T19:58:26.933Z,72.75
2022-12-15T20:00:58.023Z,72.88
2022-12-15T20:03:26.224Z,73.30
2022-12-15T20:05:56.427Z,72.87
2022-12-15T20:08:29.592Z,72.80
2022-12-15T20:10:56.991Z,72.66
2022-12-15T20:13:26.512Z,73.13
2022-12-15T20:15:54.851Z,73.00
2022-12-15T20:18:22.172Z,72.80
2022-12-15T20:20:50.948Z,72.29
2022-12-15T20:23:26.187Z,72.05
2022-12-15T20:25:54.669Z,72.52
2022-12-15T20:28:29.433Z,71.97
2022-12-15T20:30:58.231Z,71.52
2022-12-15T20:33:25.381Z,70.88
2022-12-15T20:35:52.877Z,70.84
2022-12-15T20:38:32.495Z,71.46
2022-12-15T20:41:01.557Z,71.39
2022-12-15T20:43:31.811Z,70.67
2022-12-15T20:46:22.906Z,70.89
2022-12-15T20:48:52.098Z,70.74
2022-12-15T20:51:26.054Z,70.62
2022-12-15T20:53:55.690Z,70.87
2022-12-15T20:56:23.852Z,70.24
2022-12-15T20:58:52.897Z,70.49
2022-12-15T21:01:33.048Z,70.60
2022-12-15T21:04:03.637Z,71.00
2022-12-15T21:06:30.984Z,70.50
2022-12-15T21:08:58.012Z,69.77
2022-12-15T21:11:28.373Z,68.59
2022-12-15T21:13:59.259Z,69.00
2022-12-15T21:16:29.089Z,69.15
2022-12-15T21:19:20.239Z,69.61
2022-12-15T21:21:47.846Z,69.49
2022-12-15T21:24:25.419Z,69.57
2022-12-15T21:26:52.998Z,70.17
2022-12-15T21:29:24.826Z,70.28
2022-12-15T21:31:51.928Z,70.15
2022-12-15T21:34:18.940Z,70.08
2022-12-15T21:36:51.835Z,70.86
2022-12-15T21:39:30.105Z,70.02
2022-12-15T21:42:13.229Z,70.36
2022-12-15T21:44:41.599Z,70.66
2022-12-15T21:47:52.030Z,70.89
2022-12-15T21:50:19.838Z,70.40
2022-12-15T21:52:47.823Z,70.88
2022-12-15T21:55:21.309Z,70.57
2022-12-15T21:57:48.706Z,70.46
2022-12-15T22:00:18.337Z,70.79
2022-12-15T22:02:47.288Z,71.26
2022-12-15T22:05:23.668Z,72.17
2022-12-15T22:07:51.228Z,72.01
2022-12-15T22:10:18.688Z,72.45
2022-12-15T22:12:59.031Z,72.00
2022-12-15T22:15:28.798Z,72.30
2022-12-15T22:17:56.158Z,72.41
2022-12-15T22:20:24.568Z,71.92
2022-12-15T22:22:51.813Z,72.76
2022-12-15T22:25:26.085Z,71.96
2022-12-15T22:27:54.746Z,72.04
2022-12-15T22:30:26.871Z,71.83
2022-12-15T22:32:54.305Z,71.91
2022-12-15T22:35:27.204Z,71.82
2022-12-15T22:37:54.190Z,71.89
2022-12-15T22:40:24.183Z,72.07
2022-12-15T22:42:57.652Z,71.77
2022-12-15T22:45:24.862Z,71.10
2022-12-15T22:47:53.505Z,71.49
2022-12-15T22:50:25.635Z,71.84
2022-12-15T22:52:52.946Z,71.83
2022-12-15T22:55:22.851Z,71.65
2022-12-15T22:58:01.222Z,72.10
2022-12-15T23:00:28.567Z,71.93
2022-12-15T23:05:29.387Z,71.73
2022-12-15T23:07:56.380Z,72.62
2022-12-15T23:10:42.011Z,72.50
2022-12-15T23:13:08.990Z,72.55
2022-12-15T23:15:54.867Z,72.07
2022-12-15T23:18:21.895Z,72.29
2022-12-15T23:20:48.890Z,73.42
2022-12-15T23:23:15.883Z,73.78
2022-12-15T23:25:43.787Z,73.90
2022-12-15T23:28:10.775Z,73.88
2022-12-15T23:30:37.871Z,74.08
2022-12-15T23:33:04.926Z,75.04
2022-12-15T23:35:31.948Z,74.80
2022-12-15T23:37:58.983Z,74.46
2022-12-15T23:40:26.098Z,74.24
2022-12-15T23:42:53.764Z,74.16
2022-12-15T23:45:21.106Z,74.13
2022-12-15T23:47:48.155Z,74.67
2022-12-15T23:50:15.169Z,74.49
2022-12-15T23:52:42.387Z,74.59
2022-12-15T23:55:10.206Z,75.21
2022-12-15T23:57:39.471Z,74.74
